WJA1468 CYYC-KPSP
Flight info
| Callsign | WJA1468 |
|---|---|
| Flight time | N/A |
| Altitude | 37000 |
| Route | OTARA Q931 IPTAN DCT PIH DCT DTA DCT LAKRR DCT HAKMN DCT ZELMA RDBUL1 |
| Aircraft | B737/M-SDE2E3FGHIRWXY/LB1 |
Departure
| Time | 2026-04-27 13:55 |
|---|---|
| Airport | Calgary International Airport (CYYC) |
Arrival
| Time | N/A |
|---|---|
| Airport | Palm Springs International Airport (KPSP) |
| Time | Latitude | Longitude | Altitude | Speed | Heading |
|---|---|---|---|---|---|
| 2026-04-27 12:55 | 51.12944 | -114.00002 | 3558 ft | 0 kts | 1° |
| 2026-04-27 13:38 | 51.12940 | -114.00002 | 3558 ft | 3 kts | 1° |
| 2026-04-27 13:39 | 51.12914 | -114.00003 | 3555 ft | 4 kts | 1° |
| 2026-04-27 13:39 | 51.12898 | -114.00003 | 3557 ft | 1 kts | 1° |
| 2026-04-27 13:39 | 51.12896 | -114.00004 | 3557 ft | 0 kts | 1° |
| 2026-04-27 13:44 | 51.12897 | -114.00003 | 3557 ft | 1 kts | 2° |
| 2026-04-27 13:44 | 51.12899 | -113.99994 | 3555 ft | 1 kts | 75° |
| 2026-04-27 13:45 | 51.12890 | -113.99968 | 3557 ft | 4 kts | 131° |
| 2026-04-27 13:45 | 51.12867 | -113.99934 | 3555 ft | 4 kts | 142° |
| 2026-04-27 13:45 | 51.12842 | -113.99904 | 3558 ft | 5 kts | 142° |
| 2026-04-27 13:45 | 51.12813 | -113.99876 | 3558 ft | 5 kts | 160° |
| 2026-04-27 13:46 | 51.12779 | -113.99876 | 3558 ft | 6 kts | 180° |
| 2026-04-27 13:46 | 51.12742 | -113.99876 | 3558 ft | 7 kts | 180° |
| 2026-04-27 13:46 | 51.12702 | -113.99847 | 3558 ft | 6 kts | 115° |
| 2026-04-27 13:46 | 51.12700 | -113.99773 | 3558 ft | 8 kts | 88° |
| 2026-04-27 13:47 | 51.12700 | -113.99713 | 3559 ft | 9 kts | 89° |
| 2026-04-27 13:47 | 51.12700 | -113.99573 | 3559 ft | 10 kts | 91° |
| 2026-04-27 13:47 | 51.12701 | -113.99493 | 3559 ft | 11 kts | 83° |
| 2026-04-27 13:47 | 51.12744 | -113.99443 | 3559 ft | 7 kts | 359° |
| 2026-04-27 13:48 | 51.12804 | -113.99445 | 3559 ft | 10 kts | 0° |
| 2026-04-27 13:48 | 51.12856 | -113.99445 | 3559 ft | 12 kts | 360° |
| 2026-04-27 13:48 | 51.12947 | -113.99446 | 3559 ft | 14 kts | 1° |
| 2026-04-27 13:48 | 51.13049 | -113.99445 | 3559 ft | 16 kts | 359° |
| 2026-04-27 13:49 | 51.13167 | -113.99446 | 3557 ft | 18 kts | 1° |
| 2026-04-27 13:49 | 51.13295 | -113.99445 | 3556 ft | 19 kts | 360° |
| 2026-04-27 13:49 | 51.13435 | -113.99445 | 3559 ft | 21 kts | 0° |
| 2026-04-27 13:49 | 51.13586 | -113.99444 | 3558 ft | 22 kts | 0° |
| 2026-04-27 13:50 | 51.13743 | -113.99444 | 3557 ft | 23 kts | 0° |
| 2026-04-27 13:50 | 51.13901 | -113.99444 | 3557 ft | 23 kts | 0° |
| 2026-04-27 13:50 | 51.14017 | -113.99445 | 3556 ft | 11 kts | 6° |
| 2026-04-27 13:50 | 51.14054 | -113.99361 | 3559 ft | 10 kts | 97° |
| 2026-04-27 13:51 | 51.14085 | -113.99305 | 3557 ft | 6 kts | 5° |
| 2026-04-27 13:51 | 51.14136 | -113.99305 | 3560 ft | 9 kts | 359° |
| 2026-04-27 13:51 | 51.14206 | -113.99305 | 3558 ft | 11 kts | 359° |
| 2026-04-27 13:51 | 51.14288 | -113.99304 | 3559 ft | 12 kts | 0° |
| 2026-04-27 13:52 | 51.14374 | -113.99304 | 3559 ft | 13 kts | 360° |
| 2026-04-27 13:52 | 51.14465 | -113.99303 | 3558 ft | 13 kts | 359° |
| 2026-04-27 13:52 | 51.14559 | -113.99304 | 3559 ft | 14 kts | 0° |
| 2026-04-27 13:52 | 51.14655 | -113.99304 | 3559 ft | 13 kts | 359° |
| 2026-04-27 13:53 | 51.14759 | -113.99223 | 3561 ft | 7 kts | 89° |
| 2026-04-27 13:53 | 51.14759 | -113.99148 | 3562 ft | 7 kts | 90° |
| 2026-04-27 13:53 | 51.14756 | -113.99075 | 3564 ft | 7 kts | 109° |
| 2026-04-27 13:54 | 51.14719 | -113.99035 | 3562 ft | 7 kts | 166° |
| 2026-04-27 13:54 | 51.14674 | -113.99032 | 3562 ft | 8 kts | 179° |
| 2026-04-27 13:54 | 51.14505 | -113.99031 | 3564 ft | 56 kts | 180° |
| 2026-04-27 13:54 | 51.13872 | -113.99033 | 3563 ft | 124 kts | 180° |
| 2026-04-27 13:55 | 51.12822 | -113.99014 | 3672 ft | 167 kts | 176° |
| 2026-04-27 13:55 | 51.11632 | -113.98941 | 4460 ft | 168 kts | 177° |
| 2026-04-27 13:55 | 51.10514 | -113.98927 | 5542 ft | 159 kts | 185° |
| 2026-04-27 13:55 | 51.09342 | -113.99100 | 6040 ft | 184 kts | 186° |
| 2026-04-27 13:56 | 51.07961 | -113.99297 | 6326 ft | 210 kts | 185° |
| 2026-04-27 13:56 | 51.06450 | -113.99503 | 6778 ft | 232 kts | 185° |
| 2026-04-27 13:56 | 51.04741 | -113.99736 | 7212 ft | 256 kts | 186° |
| 2026-04-27 13:56 | 51.02937 | -113.99981 | 8045 ft | 262 kts | 186° |
| 2026-04-27 13:57 | 51.01101 | -114.00229 | 8967 ft | 269 kts | 187° |
| 2026-04-27 13:57 | 50.99190 | -114.00488 | 9698 ft | 281 kts | 187° |
| 2026-04-27 13:57 | 50.97215 | -114.00797 | 10415 ft | 292 kts | 187° |
| 2026-04-27 13:57 | 50.95090 | -114.01150 | 10659 ft | 320 kts | 187° |
| 2026-04-27 13:58 | 50.92788 | -114.01525 | 10900 ft | 345 kts | 187° |
| 2026-04-27 13:58 | 50.90347 | -114.01906 | 11476 ft | 358 kts | 187° |
| 2026-04-27 13:58 | 50.87852 | -114.02283 | 12288 ft | 362 kts | 186° |
| 2026-04-27 13:58 | 50.85317 | -114.02659 | 13142 ft | 367 kts | 186° |
| 2026-04-27 13:59 | 50.82789 | -114.03028 | 13953 ft | 373 kts | 186° |
| 2026-04-27 13:59 | 50.80153 | -114.03412 | 14683 ft | 378 kts | 186° |
| 2026-04-27 13:59 | 50.77521 | -114.03795 | 15427 ft | 382 kts | 186° |
| 2026-04-27 13:59 | 50.74865 | -114.04180 | 16173 ft | 386 kts | 186° |
| 2026-04-27 14:00 | 50.72201 | -114.04566 | 16871 ft | 391 kts | 186° |
| 2026-04-27 14:00 | 50.69442 | -114.04966 | 17507 ft | 396 kts | 186° |
| 2026-04-27 14:00 | 50.66682 | -114.05366 | 18219 ft | 400 kts | 186° |
| 2026-04-27 14:00 | 50.63944 | -114.05762 | 18877 ft | 403 kts | 186° |
| 2026-04-27 14:01 | 50.61097 | -114.06157 | 19502 ft | 407 kts | 185° |
| 2026-04-27 14:01 | 50.58299 | -114.06436 | 20089 ft | 411 kts | 183° |
| 2026-04-27 14:01 | 50.55430 | -114.06661 | 20682 ft | 414 kts | 183° |
| 2026-04-27 14:01 | 50.52534 | -114.06869 | 21267 ft | 418 kts | 183° |
| 2026-04-27 14:02 | 50.49599 | -114.07081 | 21848 ft | 422 kts | 183° |
| 2026-04-27 14:02 | 50.46659 | -114.07301 | 22406 ft | 426 kts | 183° |
| 2026-04-27 14:02 | 50.43685 | -114.07532 | 22980 ft | 429 kts | 183° |
| 2026-04-27 14:02 | 50.40691 | -114.07770 | 23527 ft | 433 kts | 183° |
| 2026-04-27 14:03 | 50.37657 | -114.08015 | 23994 ft | 436 kts | 183° |
| 2026-04-27 14:03 | 50.34621 | -114.08262 | 24423 ft | 440 kts | 183° |
| 2026-04-27 14:03 | 50.31542 | -114.08512 | 24841 ft | 444 kts | 182° |
| 2026-04-27 14:03 | 50.28445 | -114.08764 | 25258 ft | 447 kts | 182° |
| 2026-04-27 14:04 | 50.25372 | -114.09014 | 25666 ft | 451 kts | 182° |
| 2026-04-27 14:04 | 50.22225 | -114.09269 | 26058 ft | 454 kts | 182° |
| 2026-04-27 14:04 | 50.19061 | -114.09525 | 26433 ft | 458 kts | 182° |
| 2026-04-27 14:04 | 50.15860 | -114.09783 | 26820 ft | 461 kts | 182° |
| 2026-04-27 14:05 | 50.12643 | -114.10043 | 27189 ft | 464 kts | 182° |
| 2026-04-27 14:05 | 50.09407 | -114.10303 | 27548 ft | 467 kts | 182° |
| 2026-04-27 14:05 | 50.06147 | -114.10565 | 27911 ft | 470 kts | 182° |
| 2026-04-27 14:05 | 50.02862 | -114.10829 | 28261 ft | 473 kts | 182° |
| 2026-04-27 14:06 | 49.99550 | -114.11095 | 28612 ft | 476 kts | 182° |
| 2026-04-27 14:06 | 49.96240 | -114.11360 | 28938 ft | 479 kts | 182° |
| 2026-04-27 14:06 | 49.92896 | -114.11628 | 29258 ft | 482 kts | 182° |
| 2026-04-27 14:06 | 49.89543 | -114.11896 | 29561 ft | 484 kts | 182° |
| 2026-04-27 14:07 | 49.86207 | -114.12162 | 29901 ft | 486 kts | 182° |
| 2026-04-27 14:07 | 49.82832 | -114.12431 | 30343 ft | 485 kts | 182° |
| 2026-04-27 14:07 | 49.79463 | -114.12700 | 30718 ft | 483 kts | 182° |
| 2026-04-27 14:07 | 49.76115 | -114.12966 | 31053 ft | 483 kts | 182° |
| 2026-04-27 14:08 | 49.72745 | -114.13234 | 31366 ft | 484 kts | 182° |
| 2026-04-27 14:08 | 49.69384 | -114.13500 | 31687 ft | 483 kts | 182° |
| 2026-04-27 14:08 | 49.66028 | -114.13766 | 32020 ft | 483 kts | 182° |
| 2026-04-27 14:08 | 49.62668 | -114.13993 | 32333 ft | 482 kts | 179° |
| 2026-04-27 14:09 | 49.59326 | -114.13683 | 32598 ft | 482 kts | 171° |
| 2026-04-27 14:09 | 49.56012 | -114.12889 | 32919 ft | 481 kts | 169° |
| 2026-04-27 14:09 | 49.52721 | -114.12022 | 33245 ft | 480 kts | 169° |
| 2026-04-27 14:09 | 49.49421 | -114.11134 | 33555 ft | 481 kts | 169° |
| 2026-04-27 14:10 | 49.46125 | -114.10255 | 33846 ft | 481 kts | 169° |
| 2026-04-27 14:10 | 49.43044 | -114.09450 | 34119 ft | 481 kts | 169° |
| 2026-04-27 14:10 | 49.39735 | -114.08604 | 34391 ft | 480 kts | 169° |
| 2026-04-27 14:10 | 49.36437 | -114.07775 | 34662 ft | 480 kts | 170° |
| 2026-04-27 14:11 | 49.33133 | -114.06954 | 34919 ft | 480 kts | 170° |
| 2026-04-27 14:11 | 49.29841 | -114.06140 | 35173 ft | 479 kts | 170° |
| 2026-04-27 14:11 | 49.26546 | -114.05329 | 35426 ft | 479 kts | 170° |
| 2026-04-27 14:11 | 49.23267 | -114.04522 | 35694 ft | 478 kts | 170° |
| 2026-04-27 14:12 | 49.19973 | -114.03712 | 35936 ft | 478 kts | 170° |
| 2026-04-27 14:12 | 49.16685 | -114.02903 | 36141 ft | 478 kts | 170° |
| 2026-04-27 14:12 | 49.13385 | -114.02093 | 36366 ft | 478 kts | 170° |
| 2026-04-27 14:12 | 49.10116 | -114.01290 | 36589 ft | 477 kts | 171° |
| 2026-04-27 14:13 | 49.06824 | -114.00484 | 36810 ft | 477 kts | 171° |
| 2026-04-27 14:13 | 49.03589 | -113.99692 | 37020 ft | 477 kts | 171° |
| 2026-04-27 14:13 | 49.00300 | -113.98887 | 37106 ft | 478 kts | 171° |
| 2026-04-27 14:14 | 48.93644 | -113.97263 | 37110 ft | 477 kts | 171° |
| 2026-04-27 14:14 | 48.87113 | -113.95674 | 37101 ft | 475 kts | 171° |
| 2026-04-27 14:15 | 48.80584 | -113.94090 | 37100 ft | 474 kts | 171° |
| 2026-04-27 14:15 | 48.74074 | -113.92514 | 37083 ft | 473 kts | 171° |
| 2026-04-27 14:16 | 48.67555 | -113.90940 | 37079 ft | 473 kts | 171° |
| 2026-04-27 14:16 | 48.61088 | -113.89383 | 37071 ft | 473 kts | 171° |
| 2026-04-27 14:17 | 48.54584 | -113.87821 | 37069 ft | 473 kts | 171° |
| 2026-04-27 14:17 | 48.48086 | -113.86265 | 37067 ft | 473 kts | 171° |
| 2026-04-27 14:18 | 48.41615 | -113.84719 | 37067 ft | 473 kts | 171° |
| 2026-04-27 14:18 | 48.35092 | -113.83305 | 37103 ft | 473 kts | 173° |
| 2026-04-27 14:19 | 48.28531 | -113.82579 | 37109 ft | 473 kts | 178° |
| 2026-04-27 14:19 | 48.22023 | -113.81139 | 37077 ft | 474 kts | 167° |
| 2026-04-27 14:20 | 48.15567 | -113.78937 | 37069 ft | 475 kts | 168° |
| 2026-04-27 14:20 | 48.09093 | -113.77045 | 37058 ft | 475 kts | 170° |
| 2026-04-27 14:21 | 48.02568 | -113.75427 | 37056 ft | 474 kts | 171° |
| 2026-04-27 14:21 | 47.96048 | -113.73914 | 37062 ft | 474 kts | 171° |
| 2026-04-27 14:22 | 47.89524 | -113.72408 | 37056 ft | 473 kts | 171° |
| 2026-04-27 14:22 | 47.83014 | -113.70897 | 37049 ft | 473 kts | 171° |
| 2026-04-27 14:23 | 47.76516 | -113.69385 | 37049 ft | 472 kts | 171° |
| 2026-04-27 14:23 | 47.70041 | -113.67880 | 37051 ft | 471 kts | 171° |
| 2026-04-27 14:24 | 47.63547 | -113.66375 | 37052 ft | 471 kts | 172° |
| 2026-04-27 14:24 | 47.58173 | -113.65133 | 37058 ft | 471 kts | 172° |
| 2026-04-27 14:25 | 47.51953 | -113.63698 | 37059 ft | 470 kts | 172° |
| 2026-04-27 14:25 | 47.47529 | -113.62680 | 37060 ft | 470 kts | 172° |
| 2026-04-27 14:26 | 47.41064 | -113.61195 | 37063 ft | 470 kts | 172° |
| 2026-04-27 14:26 | 47.34547 | -113.59702 | 37066 ft | 470 kts | 172° |
| 2026-04-27 14:27 | 47.28125 | -113.58234 | 37065 ft | 470 kts | 172° |
| 2026-04-27 14:27 | 47.21662 | -113.56761 | 37068 ft | 470 kts | 172° |
| 2026-04-27 14:28 | 47.19769 | -113.56330 | 37071 ft | 470 kts | 172° |
| 2026-04-27 14:28 | 47.13336 | -113.54868 | 37076 ft | 470 kts | 172° |
| 2026-04-27 14:29 | 47.06860 | -113.53400 | 37073 ft | 470 kts | 172° |
| 2026-04-27 14:29 | 47.03369 | -113.52610 | 37075 ft | 470 kts | 172° |
| 2026-04-27 14:31 | 47.00647 | -113.51995 | 37079 ft | 470 kts | 172° |
| 2026-04-27 14:32 | 46.94170 | -113.50533 | 37076 ft | 470 kts | 172° |
| 2026-04-27 14:32 | 46.87734 | -113.49085 | 37077 ft | 470 kts | 172° |
| 2026-04-27 14:33 | 46.81258 | -113.47631 | 37079 ft | 470 kts | 172° |
| 2026-04-27 14:33 | 46.74770 | -113.46178 | 37072 ft | 470 kts | 172° |
| 2026-04-27 14:34 | 46.68343 | -113.44742 | 37070 ft | 470 kts | 172° |
| 2026-04-27 14:34 | 46.61883 | -113.43302 | 37060 ft | 470 kts | 172° |
| 2026-04-27 14:35 | 46.55425 | -113.41866 | 37066 ft | 469 kts | 172° |
| 2026-04-27 14:35 | 46.48972 | -113.40434 | 37055 ft | 469 kts | 172° |
| 2026-04-27 14:36 | 46.42520 | -113.39007 | 37062 ft | 469 kts | 173° |
| 2026-04-27 14:36 | 46.36072 | -113.37583 | 37050 ft | 468 kts | 173° |
| 2026-04-27 14:37 | 46.29616 | -113.36162 | 37048 ft | 468 kts | 173° |
| 2026-04-27 14:37 | 46.23184 | -113.34748 | 37048 ft | 468 kts | 173° |
| 2026-04-27 14:38 | 46.16746 | -113.33338 | 37046 ft | 468 kts | 173° |
| 2026-04-27 14:38 | 46.10314 | -113.31931 | 37045 ft | 468 kts | 173° |
| 2026-04-27 14:39 | 46.03921 | -113.30537 | 37032 ft | 468 kts | 173° |
| 2026-04-27 14:39 | 45.97479 | -113.29134 | 37041 ft | 468 kts | 173° |
| 2026-04-27 14:40 | 45.91043 | -113.27737 | 37040 ft | 468 kts | 173° |
| 2026-04-27 14:40 | 45.84609 | -113.26343 | 37039 ft | 468 kts | 173° |
| 2026-04-27 14:41 | 45.78183 | -113.24954 | 37044 ft | 468 kts | 173° |
| 2026-04-27 14:41 | 45.71733 | -113.23564 | 37037 ft | 468 kts | 173° |
| 2026-04-27 14:42 | 45.65299 | -113.22180 | 37036 ft | 468 kts | 173° |
| 2026-04-27 14:42 | 45.58847 | -113.20795 | 37037 ft | 468 kts | 173° |
| 2026-04-27 14:43 | 45.52404 | -113.19415 | 37037 ft | 468 kts | 173° |
| 2026-04-27 14:43 | 45.46003 | -113.18048 | 37037 ft | 468 kts | 173° |
| 2026-04-27 14:44 | 45.39564 | -113.16676 | 37029 ft | 468 kts | 173° |
| 2026-04-27 14:44 | 45.33135 | -113.15309 | 37042 ft | 467 kts | 173° |
| 2026-04-27 14:45 | 45.26696 | -113.13943 | 37039 ft | 467 kts | 173° |
| 2026-04-27 14:45 | 45.20271 | -113.12583 | 37029 ft | 467 kts | 173° |
| 2026-04-27 14:46 | 45.13842 | -113.11225 | 37033 ft | 466 kts | 173° |
| 2026-04-27 14:46 | 45.07428 | -113.09874 | 37017 ft | 466 kts | 173° |
| 2026-04-27 14:47 | 45.03061 | -113.08955 | 37022 ft | 466 kts | 173° |
| 2026-04-27 14:47 | 44.97489 | -113.07786 | 37015 ft | 466 kts | 173° |